createdAt,value
2018-04-07T00:00:38.991Z,4.40
2018-04-07T00:03:06.457Z,4.00
2018-04-07T00:05:33.908Z,4.40
2018-04-07T00:08:01.375Z,4.63
2018-04-07T00:10:28.854Z,4.67
2018-04-07T00:12:57.078Z,4.10
2018-04-07T00:15:24.568Z,4.60
2018-04-07T00:17:52.026Z,4.53
2018-04-07T00:20:19.494Z,5.20
2018-04-07T00:22:47.717Z,4.37
2018-04-07T00:25:15.175Z,5.33
2018-04-07T00:27:42.629Z,5.00
2018-04-07T00:30:10.100Z,3.93
2018-04-07T00:32:37.566Z,4.07
2018-04-07T00:35:05.048Z,3.60
2018-04-07T00:37:32.510Z,5.03
2018-04-07T00:39:59.986Z,5.40
2018-04-07T00:42:28.207Z,4.90
2018-04-07T00:44:55.670Z,5.00
2018-04-07T00:47:23.159Z,5.30
2018-04-07T00:49:50.621Z,4.80
2018-04-07T00:52:18.084Z,4.33
2018-04-07T00:54:45.566Z,4.70
2018-04-07T00:57:13.032Z,4.70
2018-04-07T00:59:40.498Z,3.60
2018-04-07T01:02:07.981Z,4.10
2018-04-07T01:04:35.442Z,4.60
2018-04-07T01:07:02.910Z,5.90
2018-04-07T01:09:30.382Z,4.47
2018-04-07T01:11:57.843Z,4.87
2018-04-07T01:14:25.307Z,4.70
2018-04-07T01:16:52.764Z,5.83
2018-04-07T01:19:20.243Z,5.00
2018-04-07T01:21:47.703Z,5.70
2018-04-07T01:24:15.179Z,5.83
2018-04-07T01:26:42.638Z,5.77
2018-04-07T01:29:10.108Z,4.93
2018-04-07T01:31:37.562Z,5.43
2018-04-07T01:34:05.026Z,4.70
2018-04-07T01:36:32.488Z,4.50
2018-04-07T01:38:59.951Z,5.43
2018-04-07T01:41:27.415Z,5.90
2018-04-07T01:43:54.886Z,5.23
2018-04-07T01:46:22.337Z,4.90
2018-04-07T01:48:49.802Z,4.93
2018-04-07T01:51:17.257Z,5.97
2018-04-07T01:53:44.742Z,5.03
2018-04-07T01:56:12.972Z,5.77
2018-04-07T01:58:40.444Z,5.30
2018-04-07T02:01:07.915Z,5.23
2018-04-07T02:03:35.375Z,5.93
2018-04-07T02:06:02.851Z,5.27
2018-04-07T02:08:31.083Z,5.03
2018-04-07T02:10:58.554Z,4.90
2018-04-07T02:13:26.020Z,5.07
2018-04-07T02:15:53.483Z,4.80
2018-04-07T02:18:20.933Z,5.43
2018-04-07T02:20:48.403Z,4.73
2018-04-07T02:23:15.870Z,4.57
2018-04-07T02:25:44.110Z,6.17
2018-04-07T02:28:11.569Z,5.03
2018-04-07T02:30:39.047Z,4.73
2018-04-07T02:33:06.497Z,5.30
2018-04-07T02:35:33.978Z,5.37
2018-04-07T02:38:01.430Z,4.63
2018-04-07T02:40:28.919Z,5.10
2018-04-07T02:42:57.147Z,5.07
2018-04-07T02:45:24.628Z,5.00
2018-04-07T02:47:52.107Z,5.33
2018-04-07T02:50:20.354Z,5.03
2018-04-07T02:52:47.867Z,5.47
2018-04-07T02:55:15.332Z,5.10
2018-04-07T02:57:42.803Z,5.23
2018-04-07T03:00:10.312Z,5.43
2018-04-07T03:02:38.546Z,4.83
2018-04-07T03:05:06.019Z,5.30
2018-04-07T03:07:33.488Z,5.47
2018-04-07T03:10:01.761Z,5.47
2018-04-07T03:12:29.219Z,5.00
2018-04-07T03:14:56.696Z,4.60
2018-04-07T03:17:24.928Z,5.03
2018-04-07T03:19:52.435Z,6.50
2018-04-07T03:22:20.660Z,4.70
2018-04-07T03:24:48.128Z,5.47
2018-04-07T03:27:15.590Z,5.50
2018-04-07T03:29:43.062Z,6.00
2018-04-07T03:32:10.552Z,6.40
2018-04-07T03:34:38.024Z,5.30
2018-04-07T03:37:05.488Z,5.83
2018-04-07T03:39:32.959Z,5.67
2018-04-07T03:42:00.431Z,5.53
2018-04-07T03:44:28.167Z,5.77
2018-04-07T03:46:55.630Z,5.30
2018-04-07T03:49:23.110Z,6.10
2018-04-07T03:51:50.574Z,6.00
2018-04-07T03:54:18.049Z,5.63
2018-04-07T03:56:45.515Z,5.17
2018-04-07T03:59:13.763Z,6.57
2018-04-07T04:01:41.244Z,6.60
2018-04-07T04:04:08.714Z,6.70
2018-04-07T04:06:36.951Z,5.40
2018-04-07T04:09:04.409Z,5.87
2018-04-07T04:11:31.886Z,5.30
2018-04-07T04:13:59.341Z,4.87
2018-04-07T04:16:26.829Z,6.23
2018-04-07T04:18:55.055Z,6.97
2018-04-07T04:21:22.534Z,5.77
2018-04-07T04:23:49.999Z,5.43
2018-04-07T04:26:17.467Z,6.07
2018-04-07T04:28:45.704Z,5.40
2018-04-07T04:31:13.174Z,4.90
2018-04-07T04:33:40.661Z,5.80
2018-04-07T04:36:08.127Z,6.43
2018-04-07T04:38:36.365Z,7.63
2018-04-07T04:41:03.838Z,5.20
2018-04-07T04:43:31.304Z,6.63
2018-04-07T04:45:59.551Z,5.03
2018-04-07T04:48:27.011Z,6.17
2018-04-07T04:50:54.495Z,5.43
2018-04-07T04:53:21.954Z,5.20
2018-04-07T04:55:50.194Z,5.13
2018-04-07T04:58:17.680Z,6.03
2018-04-07T05:00:45.143Z,6.10
2018-04-07T05:03:12.608Z,6.23
2018-04-07T05:05:40.084Z,6.33
2018-04-07T05:08:08.328Z,5.63
2018-04-07T05:10:35.803Z,6.07
2018-04-07T05:13:04.036Z,6.03
2018-04-07T05:15:31.507Z,5.50
2018-04-07T05:17:58.990Z,6.37
2018-04-07T05:20:26.470Z,5.83
2018-04-07T05:22:53.937Z,7.17
2018-04-07T05:25:21.419Z,6.00
2018-04-07T05:27:48.891Z,6.40
2018-04-07T05:30:16.378Z,5.93
2018-04-07T05:32:43.831Z,6.50
2018-04-07T05:35:11.321Z,6.20
2018-04-07T05:37:39.543Z,6.77
2018-04-07T05:40:07.022Z,5.77
2018-04-07T05:42:34.495Z,6.50
2018-04-07T05:45:02.755Z,5.47
2018-04-07T05:47:30.214Z,5.67
2018-04-07T05:49:57.686Z,5.40
2018-04-07T05:52:25.915Z,6.60
2018-04-07T05:54:53.383Z,5.97
2018-04-07T05:57:21.619Z,5.70
2018-04-07T05:59:49.086Z,6.50
2018-04-07T06:02:16.591Z,6.97
2018-04-07T06:04:44.065Z,7.57
2018-04-07T06:07:11.543Z,7.53
2018-04-07T06:09:39.779Z,6.17
2018-04-07T06:12:07.259Z,6.70
2018-04-07T06:14:34.735Z,8.90
2018-04-07T06:17:02.967Z,7.67
2018-04-07T06:19:30.434Z,8.13
2018-04-07T06:21:57.907Z,6.87
2018-04-07T06:24:25.365Z,7.00
2018-04-07T06:26:52.843Z,7.50
2018-04-07T06:29:21.071Z,7.53
2018-04-07T06:31:48.560Z,6.73
2018-04-07T06:34:16.019Z,7.27
2018-04-07T06:36:44.265Z,8.03
2018-04-07T06:39:11.727Z,7.90
2018-04-07T06:41:39.211Z,7.60
2018-04-07T06:44:06.667Z,7.13
2018-04-07T06:46:34.918Z,8.00
2018-04-07T06:49:02.380Z,7.80
2018-04-07T06:51:29.859Z,7.20
2018-04-07T06:53:57.318Z,7.60
2018-04-07T06:56:25.567Z,6.97
2018-04-07T06:58:53.795Z,7.00
2018-04-07T07:01:21.273Z,7.00
2018-04-07T07:03:48.741Z,7.53
2018-04-07T07:06:16.218Z,7.77
2018-04-07T07:08:43.691Z,8.53
2018-04-07T07:11:11.180Z,7.50
2018-04-07T07:13:39.411Z,7.00
2018-04-07T07:16:06.883Z,6.50
2018-04-07T07:18:34.351Z,8.80
2018-04-07T07:21:01.828Z,6.27
2018-04-07T07:23:30.064Z,7.87
2018-04-07T07:25:57.541Z,7.03
2018-04-07T07:28:25.007Z,7.47
2018-04-07T07:30:52.474Z,6.80
2018-04-07T07:33:20.711Z,7.50
2018-04-07T07:35:48.179Z,6.97
2018-04-07T07:38:15.661Z,7.37
2018-04-07T07:40:43.133Z,6.20
2018-04-07T07:43:11.367Z,7.30
2018-04-07T07:45:39.613Z,7.60
2018-04-07T07:48:07.084Z,6.60
2018-04-07T07:50:34.574Z,7.10
2018-04-07T07:53:02.034Z,7.07
2018-04-07T07:55:29.519Z,8.20
2018-04-07T07:57:57.751Z,8.13
2018-04-07T08:00:25.216Z,8.40
2018-04-07T08:02:52.691Z,7.47
2018-04-07T08:05:20.193Z,8.53
2018-04-07T08:07:47.616Z,7.50
2018-04-07T08:10:16.086Z,9.47
2018-04-07T08:12:43.562Z,8.30
2018-04-07T08:15:11.790Z,7.50
2018-04-07T08:17:39.268Z,8.20
2018-04-07T08:20:06.728Z,8.57
2018-04-07T08:22:34.205Z,8.30
2018-04-07T08:25:01.674Z,9.33
2018-04-07T08:27:29.920Z,9.00
2018-04-07T08:29:57.416Z,8.97
2018-04-07T08:32:25.655Z,10.60
2018-04-07T08:34:53.142Z,10.17
2018-04-07T08:37:21.379Z,8.93
2018-04-07T08:39:48.867Z,8.23
2018-04-07T08:42:16.359Z,9.50
2018-04-07T08:44:43.831Z,9.50
2018-04-07T08:47:11.303Z,10.30
2018-04-07T08:49:38.771Z,10.13
2018-04-07T08:52:06.256Z,10.53
2018-04-07T08:54:33.722Z,11.77
2018-04-07T08:57:01.965Z,9.93
2018-04-07T08:59:29.434Z,10.43
2018-04-07T09:01:56.924Z,9.67
2018-04-07T09:04:25.163Z,10.10
2018-04-07T09:06:52.643Z,11.67
2018-04-07T09:09:20.111Z,10.13
2018-04-07T09:11:48.628Z,12.10
2018-04-07T09:14:16.091Z,11.33
2018-04-07T09:16:43.610Z,10.90
2018-04-07T09:19:11.066Z,11.10
2018-04-07T09:21:39.322Z,11.30
2018-04-07T09:24:06.795Z,11.07
2018-04-07T09:26:34.275Z,10.83
2018-04-07T09:29:02.512Z,11.27
2018-04-07T09:31:29.991Z,11.07
2018-04-07T09:33:57.476Z,9.87
2018-04-07T09:36:25.714Z,10.30
2018-04-07T09:38:53.187Z,10.10
2018-04-07T09:41:20.663Z,9.70
2018-04-07T09:43:48.910Z,10.20
2018-04-07T09:46:16.387Z,10.87
2018-04-07T09:48:44.667Z,10.60
2018-04-07T09:51:12.116Z,11.23
2018-04-07T09:53:39.583Z,9.67
2018-04-07T09:56:07.832Z,10.17
2018-04-07T09:58:35.312Z,10.40
2018-04-07T10:01:02.790Z,10.63
2018-04-07T10:03:31.034Z,10.93
2018-04-07T10:05:58.504Z,9.83
2018-04-07T10:08:25.989Z,11.47
2018-04-07T10:10:53.461Z,10.27
2018-04-07T10:13:20.947Z,11.13
2018-04-07T10:15:48.410Z,11.90
2018-04-07T10:18:15.882Z,11.83
2018-04-07T10:20:43.347Z,10.60
2018-04-07T10:23:10.818Z,11.93
2018-04-07T10:25:39.066Z,11.63
2018-04-07T10:28:06.546Z,12.40
2018-04-07T10:30:34.022Z,11.70
2018-04-07T10:33:02.283Z,11.33
2018-04-07T10:35:29.729Z,12.97
2018-04-07T10:37:57.207Z,13.43
2018-04-07T10:40:25.438Z,12.20
2018-04-07T10:42:52.910Z,11.97
2018-04-07T10:45:20.380Z,12.33
2018-04-07T10:47:47.855Z,12.97
2018-04-07T10:50:16.086Z,11.50
2018-04-07T10:52:43.579Z,11.83
2018-04-07T10:55:11.031Z,11.67
2018-04-07T10:57:38.516Z,10.50
2018-04-07T11:00:06.751Z,11.43
2018-04-07T11:02:40.182Z,10.93
2018-04-07T11:05:08.410Z,10.97
2018-04-07T11:07:35.891Z,12.10
2018-04-07T11:10:03.360Z,13.70
2018-04-07T11:12:30.854Z,11.07
2018-04-07T11:14:59.088Z,11.30
2018-04-07T11:17:26.568Z,11.93
2018-04-07T11:19:54.056Z,11.53
2018-04-07T11:22:21.536Z,11.63
2018-04-07T11:24:49.012Z,10.93
2018-04-07T11:27:16.497Z,11.53
2018-04-07T11:29:43.962Z,11.70
2018-04-07T11:32:12.213Z,11.13
2018-04-07T11:34:40.442Z,12.37
2018-04-07T11:37:07.941Z,12.40
2018-04-07T11:39:35.407Z,11.50
2018-04-07T11:42:02.899Z,11.67
2018-04-07T11:44:31.177Z,12.93
2018-04-07T11:46:59.423Z,11.17
2018-04-07T11:49:26.894Z,10.80
2018-04-07T11:51:54.386Z,11.57
2018-04-07T11:54:21.851Z,11.70
2018-04-07T11:56:49.337Z,12.57
2018-04-07T11:59:17.188Z,12.50
2018-04-07T12:01:44.667Z,12.67
2018-04-07T12:04:12.149Z,13.20
2018-04-07T12:06:39.620Z,13.27
2018-04-07T12:09:07.091Z,14.13
2018-04-07T12:11:35.343Z,13.67
2018-04-07T12:14:02.827Z,13.90
2018-04-07T12:16:31.067Z,10.93
2018-04-07T12:18:58.555Z,11.40
2018-04-07T12:21:26.042Z,10.27
2018-04-07T12:23:53.531Z,10.90
2018-04-07T12:26:21.007Z,11.60
2018-04-07T12:28:48.497Z,9.97
2018-04-07T12:31:16.743Z,9.80
2018-04-07T12:33:44.224Z,10.47
2018-04-07T12:36:11.747Z,10.60
2018-04-07T12:38:39.214Z,8.03
2018-04-07T12:41:06.675Z,6.87
2018-04-07T12:43:34.153Z,7.70
2018-04-07T12:46:01.611Z,8.17
2018-04-07T12:48:29.123Z,8.30
2018-04-07T12:50:56.605Z,6.53
2018-04-07T12:53:24.078Z,7.00
2018-04-07T12:55:51.546Z,7.83
2018-04-07T12:58:19.032Z,6.17
2018-04-07T13:00:46.490Z,6.57
2018-04-07T13:03:14.061Z,6.80
2018-04-07T13:05:41.546Z,5.00
2018-04-07T13:08:08.999Z,5.10
2018-04-07T13:10:36.475Z,6.23
2018-04-07T13:13:03.942Z,5.50
2018-04-07T13:15:31.416Z,6.03
2018-04-07T13:17:58.898Z,5.80
2018-04-07T13:20:27.140Z,5.53
2018-04-07T13:22:54.602Z,5.80
2018-04-07T13:25:22.074Z,5.80
2018-04-07T13:27:49.546Z,6.13
2018-04-07T13:30:17.787Z,5.83
2018-04-07T13:32:45.247Z,5.90
2018-04-07T13:35:12.733Z,5.73
2018-04-07T13:37:40.187Z,5.80
2018-04-07T13:40:07.663Z,5.60
2018-04-07T13:42:35.886Z,5.53
2018-04-07T13:45:03.363Z,5.97
2018-04-07T13:47:30.843Z,6.07
2018-04-07T13:49:59.089Z,4.97
2018-04-07T13:52:26.565Z,5.03
2018-04-07T13:54:54.018Z,5.23
2018-04-07T13:57:21.490Z,5.67
2018-04-07T13:59:48.961Z,5.60
2018-04-07T14:02:17.204Z,5.83
2018-04-07T14:04:44.664Z,5.20
2018-04-07T14:07:12.147Z,4.30
2018-04-07T14:09:39.616Z,5.00
2018-04-07T14:12:07.863Z,4.83
2018-04-07T14:14:35.315Z,4.80
2018-04-07T14:17:02.785Z,4.40
2018-04-07T14:19:30.255Z,5.80
2018-04-07T14:21:57.743Z,4.70
2018-04-07T14:24:25.211Z,3.87
2018-04-07T14:26:52.692Z,2.60
2018-04-07T14:29:20.159Z,2.33
2018-04-07T14:31:47.632Z,2.10
2018-04-07T14:34:15.102Z,1.77
2018-04-07T14:36:42.590Z,2.50
2018-04-07T14:39:10.054Z,1.80
2018-04-07T14:41:37.529Z,1.77
2018-04-07T14:44:05.008Z,1.83
2018-04-07T14:46:32.495Z,1.90
2018-04-07T14:48:59.959Z,2.83
2018-04-07T14:51:27.431Z,2.20
2018-04-07T14:53:55.662Z,2.50
2018-04-07T14:56:23.898Z,2.40
2018-04-07T14:58:51.475Z,2.33
2018-04-07T15:01:18.962Z,2.80
2018-04-07T15:03:46.430Z,2.00
2018-04-07T15:06:13.909Z,2.33
2018-04-07T15:08:42.971Z,2.40
2018-04-07T15:11:10.456Z,3.07
2018-04-07T15:13:37.936Z,2.73
2018-04-07T15:16:06.187Z,3.03
2018-04-07T15:18:33.647Z,2.70
2018-04-07T15:21:01.107Z,2.80
2018-04-07T15:23:29.366Z,2.73
2018-04-07T15:25:56.829Z,2.90
2018-04-07T15:28:24.297Z,2.47
2018-04-07T15:30:52.546Z,3.00
2018-04-07T15:33:20.023Z,3.33
2018-04-07T15:35:47.490Z,2.97
2018-04-07T15:38:14.963Z,2.93
2018-04-07T15:40:42.433Z,3.30
2018-04-07T15:43:10.668Z,3.23
2018-04-07T15:45:38.126Z,2.57
2018-04-07T15:48:06.374Z,2.80
2018-04-07T15:50:33.852Z,2.93
2018-04-07T15:53:01.328Z,2.60
2018-04-07T15:55:28.826Z,2.73
2018-04-07T15:57:56.284Z,2.40
2018-04-07T16:00:24.514Z,2.60
2018-04-07T16:02:52.000Z,2.80
2018-04-07T16:05:19.458Z,3.20
2018-04-07T16:07:46.957Z,2.40
2018-04-07T16:10:14.434Z,3.17
2018-04-07T16:12:41.938Z,3.83
2018-04-07T16:15:09.413Z,3.00
2018-04-07T16:17:37.647Z,2.70
2018-04-07T16:20:05.111Z,2.90
2018-04-07T16:22:32.596Z,2.57
2018-04-07T16:25:00.825Z,3.33
2018-04-07T16:27:28.306Z,4.10
2018-04-07T16:29:55.802Z,6.57
2018-04-07T16:32:24.055Z,10.40
2018-04-07T16:34:51.523Z,13.97
2018-04-07T16:37:19.012Z,13.03
2018-04-07T16:39:46.504Z,12.47
2018-04-07T16:42:14.074Z,13.30
2018-04-07T16:44:41.583Z,16.10
2018-04-07T16:47:09.068Z,14.47
2018-04-07T16:49:36.548Z,12.87
2018-04-07T16:52:04.033Z,13.93
2018-04-07T16:54:31.507Z,12.70
2018-04-07T16:56:59.755Z,12.47
2018-04-07T16:59:27.293Z,12.33
2018-04-07T17:01:54.787Z,11.97
2018-04-07T17:04:22.258Z,14.00
2018-04-07T17:06:50.537Z,13.97
2018-04-07T17:09:18.797Z,15.13
2018-04-07T17:11:46.254Z,13.90
2018-04-07T17:14:13.730Z,14.00
2018-04-07T17:16:41.982Z,16.03
2018-04-07T17:19:09.446Z,15.40
2018-04-07T17:21:36.918Z,16.17
2018-04-07T17:24:05.172Z,16.10
2018-04-07T17:26:32.634Z,16.67
2018-04-07T17:29:00.123Z,16.00
2018-04-07T17:31:28.379Z,17.87
2018-04-07T17:33:55.889Z,15.60
2018-04-07T17:36:23.358Z,15.73
2018-04-07T17:38:50.838Z,14.90
2018-04-07T17:41:18.302Z,12.70
2018-04-07T17:43:45.786Z,14.07
2018-04-07T17:46:14.030Z,15.93
2018-04-07T17:48:41.528Z,13.73
2018-04-07T17:51:09.760Z,15.68
2018-04-07T17:53:37.261Z,14.90
2018-04-07T17:56:05.495Z,13.87
2018-04-07T17:58:32.982Z,14.80
2018-04-07T18:01:00.451Z,13.77
2018-04-07T18:03:27.928Z,13.13
2018-04-07T18:05:56.175Z,14.07
2018-04-07T18:08:23.654Z,14.20
2018-04-07T18:10:51.899Z,15.33
2018-04-07T18:13:19.402Z,14.37
2018-04-07T18:15:46.878Z,14.40
2018-04-07T18:18:14.363Z,14.00
2018-04-07T18:20:41.830Z,16.10
2018-04-07T18:23:09.315Z,14.70
2018-04-07T18:25:37.554Z,15.53
2018-04-07T18:28:05.045Z,15.47
2018-04-07T18:30:32.507Z,16.47
2018-04-07T18:33:00.752Z,15.27
2018-04-07T18:35:28.296Z,15.40
2018-04-07T18:37:55.826Z,16.30
2018-04-07T18:40:24.109Z,15.80
2018-04-07T18:42:51.586Z,15.83
2018-04-07T18:45:19.071Z,15.50
2018-04-07T18:47:46.555Z,15.87
2018-04-07T18:50:14.062Z,16.83
2018-04-07T18:52:41.572Z,16.67
2018-04-07T18:55:09.981Z,17.73
2018-04-07T18:57:37.454Z,17.47
2018-04-07T19:00:04.951Z,17.70
2018-04-07T19:02:32.422Z,17.03
2018-04-07T19:04:59.908Z,17.27
2018-04-07T19:07:28.139Z,19.57
2018-04-07T19:09:55.633Z,16.53
2018-04-07T19:12:23.878Z,16.93
2018-04-07T19:14:51.355Z,17.10
2018-04-07T19:17:18.832Z,15.83
2018-04-07T19:19:47.480Z,16.67
2018-04-07T19:22:14.951Z,18.83
2018-04-07T19:24:43.126Z,17.27
2018-04-07T19:27:10.597Z,17.47
2018-04-07T19:29:38.067Z,18.57
2018-04-07T19:32:06.322Z,19.07
2018-04-07T19:34:33.795Z,17.13
2018-04-07T19:37:02.028Z,17.63
2018-04-07T19:39:29.505Z,17.33
2018-04-07T19:41:56.975Z,17.53
2018-04-07T19:44:24.455Z,17.43
2018-04-07T19:46:52.687Z,18.60
2018-04-07T19:49:20.921Z,16.30
2018-04-07T19:51:48.404Z,16.83
2018-04-07T19:54:15.869Z,16.87
2018-04-07T19:56:43.357Z,16.10
2018-04-07T19:59:10.817Z,15.17
2018-04-07T20:01:38.286Z,15.20
2018-04-07T20:04:05.769Z,14.23
2018-04-07T20:06:33.256Z,14.60
2018-04-07T20:09:00.749Z,12.03
2018-04-07T20:11:28.234Z,11.77
2018-04-07T20:13:56.474Z,11.47
2018-04-07T20:16:23.951Z,10.57
2018-04-07T20:18:51.455Z,12.03
2018-04-07T20:21:18.927Z,13.63
2018-04-07T20:23:46.450Z,12.50
2018-04-07T20:26:14.700Z,10.83
2018-04-07T20:28:42.170Z,12.53
2018-04-07T20:31:09.647Z,11.93
2018-04-07T20:33:37.113Z,12.40
2018-04-07T20:36:04.594Z,13.33
2018-04-07T20:38:32.058Z,12.13
2018-04-07T20:40:59.535Z,12.00
2018-04-07T20:43:27.775Z,11.63
2018-04-07T20:45:55.259Z,10.57
2018-04-07T20:48:22.731Z,10.77
2018-04-07T20:50:50.231Z,10.23
2018-04-07T20:53:18.459Z,11.57
2018-04-07T20:55:45.963Z,9.67
2018-04-07T20:58:14.205Z,11.77
2018-04-07T21:00:41.675Z,11.40
2018-04-07T21:03:09.163Z,11.30
2018-04-07T21:05:36.652Z,10.90
2018-04-07T21:08:04.132Z,11.10
2018-04-07T21:10:31.611Z,10.97
2018-04-07T21:12:59.079Z,11.13
2018-04-07T21:15:27.323Z,12.07
2018-04-07T21:17:54.818Z,11.80
2018-04-07T21:20:23.072Z,10.20
2018-04-07T21:22:50.547Z,10.73
2018-04-07T21:25:18.830Z,11.97
2018-04-07T21:27:47.448Z,11.37
2018-04-07T21:30:14.947Z,11.23
2018-04-07T21:32:42.411Z,10.77
2018-04-07T21:35:09.895Z,10.93
2018-04-07T21:37:38.135Z,11.57
2018-04-07T21:40:05.620Z,12.07
2018-04-07T21:42:33.855Z,12.40
2018-04-07T21:45:01.331Z,12.20
2018-04-07T21:47:28.807Z,11.00
2018-04-07T21:49:56.358Z,11.60
2018-04-07T21:52:23.835Z,11.50
2018-04-07T21:54:52.062Z,11.40
2018-04-07T21:57:19.534Z,11.63
2018-04-07T21:59:47.836Z,11.40
2018-04-07T22:02:15.311Z,12.37
2018-04-07T22:04:43.554Z,12.30
2018-04-07T22:07:11.044Z,14.17
2018-04-07T22:09:39.313Z,11.13
2018-04-07T22:12:06.775Z,11.20
2018-04-07T22:14:35.019Z,11.17
2018-04-07T22:17:03.259Z,13.20
2018-04-07T22:19:30.727Z,11.47
2018-04-07T22:21:58.206Z,12.30
2018-04-07T22:24:25.707Z,13.03
2018-04-07T22:26:53.155Z,12.00
2018-04-07T22:29:20.626Z,11.30
2018-04-07T22:31:48.880Z,12.40
2018-04-07T22:34:16.344Z,12.27
2018-04-07T22:36:43.820Z,11.53
2018-04-07T22:39:12.065Z,13.20
2018-04-07T22:41:39.553Z,13.20
2018-04-07T22:44:07.790Z,13.67
2018-04-07T22:46:35.343Z,13.60
2018-04-07T22:49:02.819Z,15.10
2018-04-07T22:51:30.297Z,14.70
2018-04-07T22:53:58.573Z,14.93
2018-04-07T22:56:26.818Z,13.60
2018-04-07T22:58:54.297Z,14.07
2018-04-07T23:01:21.767Z,13.50
2018-04-07T23:03:49.243Z,14.67
2018-04-07T23:06:17.484Z,14.47
2018-04-07T23:08:44.952Z,14.30
2018-04-07T23:11:12.550Z,14.13
2018-04-07T23:13:40.015Z,13.90
2018-04-07T23:16:07.504Z,14.73
2018-04-07T23:18:35.686Z,15.57
2018-04-07T23:21:03.170Z,14.20
2018-04-07T23:23:30.641Z,14.90
2018-04-07T23:25:58.887Z,14.40
2018-04-07T23:28:26.360Z,12.90
2018-04-07T23:30:54.605Z,14.70
2018-04-07T23:33:22.078Z,13.20
2018-04-07T23:35:49.563Z,14.50
2018-04-07T23:38:17.792Z,15.07
2018-04-07T23:40:45.269Z,14.57
2018-04-07T23:43:12.730Z,16.23
2018-04-07T23:45:40.215Z,17.07
2018-04-07T23:48:08.473Z,16.07
2018-04-07T23:50:35.943Z,16.50
2018-04-07T23:53:04.187Z,16.33
2018-04-07T23:55:31.659Z,17.53
2018-04-07T23:57:59.149Z,16.37
